createdAt,value
2023-04-16T00:00:56.257Z,6.00
2023-04-16T00:06:00.981Z,5.60
2023-04-16T00:11:04.189Z,5.47
2023-04-16T00:16:08.347Z,5.15
2023-04-16T00:21:13.192Z,4.57
2023-04-16T00:26:17.020Z,5.07
2023-04-16T00:31:27.358Z,4.80
2023-04-16T00:36:32.168Z,4.00
2023-04-16T00:41:35.447Z,4.30
2023-04-16T00:46:39.903Z,4.50
2023-04-16T00:51:44.619Z,4.43
2023-04-16T00:56:48.322Z,5.03
2023-04-16T01:01:51.841Z,4.97
2023-04-16T01:06:56.742Z,4.50
2023-04-16T01:12:00.163Z,4.57
2023-04-16T01:17:03.986Z,4.65
2023-04-16T01:22:09.189Z,4.60
2023-04-16T01:27:12.627Z,4.72
2023-04-16T01:32:16.136Z,4.55
2023-04-16T01:37:21.016Z,4.25
2023-04-16T01:42:24.278Z,5.53
2023-04-16T01:47:27.706Z,4.50
2023-04-16T01:52:32.965Z,5.07
2023-04-16T01:57:36.401Z,4.97
2023-04-16T02:02:40.048Z,4.82
2023-04-16T02:07:45.081Z,5.40
2023-04-16T02:12:48.261Z,5.45
2023-04-16T02:17:56.758Z,5.57
2023-04-16T02:23:01.599Z,5.75
2023-04-16T02:28:05.424Z,5.97
2023-04-16T02:33:10.612Z,6.40
2023-04-16T02:38:15.260Z,6.10
2023-04-16T02:43:18.494Z,5.90
2023-04-16T02:48:21.826Z,6.40
2023-04-16T02:53:26.709Z,6.35
2023-04-16T02:58:30.453Z,5.20
2023-04-16T03:03:33.857Z,6.32
2023-04-16T03:08:38.715Z,6.82
2023-04-16T03:13:41.909Z,5.72
2023-04-16T03:18:45.493Z,6.28
2023-04-16T03:23:50.072Z,5.45
2023-04-16T03:28:53.748Z,4.78
2023-04-16T03:33:57.213Z,5.18
2023-04-16T03:39:02.076Z,4.90
2023-04-16T03:44:05.407Z,4.38
2023-04-16T03:49:09.042Z,4.95
2023-04-16T03:54:13.891Z,4.18
2023-04-16T03:59:17.307Z,4.00
2023-04-16T04:04:20.588Z,4.43
2023-04-16T04:09:25.572Z,4.75
2023-04-16T04:14:28.894Z,4.35
2023-04-16T04:19:32.094Z,5.18
2023-04-16T04:24:37.286Z,5.03
2023-04-16T04:29:40.649Z,5.13
2023-04-16T04:34:43.862Z,5.38
2023-04-16T04:39:48.926Z,5.32
2023-04-16T04:44:52.501Z,5.25
2023-04-16T04:49:56.005Z,5.35
2023-04-16T04:55:00.833Z,5.80
2023-04-16T05:00:04.482Z,4.63
2023-04-16T05:05:10.961Z,4.82
2023-04-16T05:10:15.837Z,4.88
2023-04-16T05:15:19.050Z,5.07
2023-04-16T05:20:22.910Z,4.97
2023-04-16T05:25:27.982Z,4.72
2023-04-16T05:30:31.257Z,4.95
2023-04-16T05:35:35.143Z,4.20
2023-04-16T05:40:40.144Z,4.30
2023-04-16T05:45:43.552Z,4.43
2023-04-16T05:50:46.892Z,4.00
2023-04-16T05:55:52.166Z,4.72
2023-04-16T06:00:55.575Z,3.92
2023-04-16T06:05:58.885Z,4.07
2023-04-16T06:11:03.743Z,3.92
2023-04-16T06:16:08.079Z,4.50
2023-04-16T06:21:11.498Z,4.15
2023-04-16T06:26:16.374Z,4.72
2023-04-16T06:31:20.455Z,4.90
2023-04-16T06:36:23.987Z,4.40
2023-04-16T06:41:28.852Z,4.30
2023-04-16T06:46:32.792Z,4.30
2023-04-16T06:51:36.374Z,4.82
2023-04-16T06:56:41.109Z,4.40
2023-04-16T07:01:45.215Z,4.20
2023-04-16T07:06:48.534Z,4.40
2023-04-16T07:11:53.333Z,4.57
2023-04-16T07:16:56.887Z,4.00
2023-04-16T07:22:00.426Z,4.82
2023-04-16T07:27:05.538Z,4.22
2023-04-16T07:32:09.715Z,4.30
2023-04-16T07:37:13.226Z,4.15
2023-04-16T07:42:17.901Z,3.92
2023-04-16T07:47:21.276Z,17.45
2023-04-16T07:52:24.625Z,3.80
2023-04-16T07:57:29.277Z,3.67
2023-04-16T08:02:33.285Z,3.40
2023-04-16T08:07:36.619Z,3.85
2023-04-16T08:12:41.500Z,3.53
2023-04-16T08:17:44.793Z,3.35
2023-04-16T08:22:48.373Z,3.58
2023-04-16T08:27:53.083Z,3.53
2023-04-16T08:32:56.685Z,3.58
2023-04-16T08:38:02.359Z,4.05
2023-04-16T08:43:11.546Z,3.50
2023-04-16T08:48:15.235Z,3.33
2023-04-16T08:53:20.437Z,3.60
2023-04-16T08:58:30.753Z,3.80
2023-04-16T09:03:36.436Z,9.05
2023-04-16T09:08:40.768Z,4.38
2023-04-16T09:13:46.151Z,4.32
2023-04-16T09:18:49.509Z,2.95
2023-04-16T09:23:54.645Z,3.45
2023-04-16T09:28:59.573Z,3.78
2023-04-16T09:34:04.562Z,3.50
2023-04-16T09:39:08.106Z,3.20
2023-04-16T09:44:12.825Z,4.18
2023-04-16T09:49:18.822Z,4.07
2023-04-16T09:54:22.212Z,3.38
2023-04-16T09:59:26.868Z,3.63
2023-04-16T10:04:30.415Z,3.30
2023-04-16T10:09:34.736Z,3.80
2023-04-16T10:14:39.707Z,4.30
2023-04-16T10:19:43.512Z,3.67
2023-04-16T10:24:49.107Z,3.65
2023-04-16T10:29:54.061Z,3.50
2023-04-16T10:34:57.370Z,3.30
2023-04-16T10:40:01.097Z,3.30
2023-04-16T10:45:06.523Z,3.38
2023-04-16T10:50:17.571Z,3.13
2023-04-16T10:55:21.375Z,3.72
2023-04-16T11:00:26.259Z,4.78
2023-04-16T11:05:47.115Z,3.15
2023-04-16T11:10:50.458Z,4.30
2023-04-16T11:15:57.936Z,4.25
2023-04-16T11:21:01.509Z,3.65
2023-04-16T11:26:04.968Z,3.47
2023-04-16T11:31:13.777Z,4.05
2023-04-16T11:36:17.416Z,4.47
2023-04-16T11:41:23.069Z,3.70
2023-04-16T11:46:39.549Z,4.20
2023-04-16T11:51:43.694Z,3.22
2023-04-16T11:56:48.865Z,3.30
2023-04-16T12:01:56.331Z,4.30
2023-04-16T12:07:13.009Z,3.80
2023-04-16T12:12:31.618Z,4.13
2023-04-16T12:17:38.038Z,4.38
2023-04-16T12:22:45.181Z,3.00
2023-04-16T12:27:53.289Z,4.40
2023-04-16T12:33:17.240Z,3.53
2023-04-16T12:38:22.839Z,3.53
2023-04-16T12:43:27.677Z,3.42
2023-04-16T12:48:32.709Z,3.20
2023-04-16T12:53:36.414Z,3.55
2023-04-16T12:58:39.647Z,4.95
2023-04-16T13:03:44.732Z,3.42
2023-04-16T13:08:48.305Z,3.92
2023-04-16T13:13:51.892Z,3.60
2023-04-16T13:18:56.640Z,4.18
2023-04-16T13:24:00.859Z,4.28
2023-04-16T13:29:04.116Z,6.43
2023-04-16T13:34:09.126Z,6.60
2023-04-16T13:39:12.696Z,5.15
2023-04-16T13:44:16.564Z,3.60
2023-04-16T13:49:21.553Z,4.57
2023-04-16T13:54:24.979Z,4.50
2023-04-16T13:59:28.474Z,3.70
2023-04-16T14:04:33.300Z,4.15
2023-04-16T14:09:36.833Z,5.43
2023-04-16T14:14:40.311Z,4.03
2023-04-16T14:19:44.989Z,4.47
2023-04-16T14:24:48.462Z,6.07
2023-04-16T14:29:52.429Z,3.65
2023-04-16T14:34:57.417Z,3.53
2023-04-16T14:40:02.020Z,3.70
2023-04-16T14:45:08.274Z,4.47
2023-04-16T14:50:14.227Z,5.60
2023-04-16T14:55:17.901Z,4.13
2023-04-16T15:00:21.897Z,4.03
2023-04-16T15:05:27.349Z,4.57
2023-04-16T15:10:32.882Z,4.47
2023-04-16T15:15:36.251Z,5.07
2023-04-16T15:20:40.977Z,5.28
2023-04-16T15:25:44.285Z,5.85
2023-04-16T15:30:47.565Z,5.25
2023-04-16T15:35:52.831Z,8.05
2023-04-16T15:40:56.130Z,5.38
2023-04-16T15:45:59.545Z,5.13
2023-04-16T15:51:04.387Z,5.68
2023-04-16T15:56:07.858Z,6.18
2023-04-16T16:01:11.197Z,6.25
2023-04-16T16:06:18.181Z,6.63
2023-04-16T16:11:22.010Z,9.20
2023-04-16T16:16:25.425Z,11.13
2023-04-16T16:21:31.237Z,8.85
2023-04-16T16:26:34.782Z,7.40
2023-04-16T16:31:38.665Z,9.05
2023-04-16T16:36:43.818Z,8.98
2023-04-16T16:41:52.220Z,9.57
2023-04-16T16:46:55.556Z,8.48
2023-04-16T16:52:00.271Z,8.32
2023-04-16T16:57:03.616Z,7.43
2023-04-16T17:02:07.070Z,7.70
2023-04-16T17:07:11.886Z,7.07
2023-04-16T17:12:15.556Z,7.53
2023-04-16T17:17:19.117Z,6.97
2023-04-16T17:22:23.891Z,7.35
2023-04-16T17:27:29.515Z,7.63
2023-04-16T17:32:33.670Z,7.03
2023-04-16T17:37:38.684Z,6.90
2023-04-16T17:42:41.905Z,7.35
2023-04-16T17:47:45.485Z,7.10
2023-04-16T17:52:50.169Z,7.72
2023-04-16T17:57:53.690Z,7.07
2023-04-16T18:02:58.845Z,7.63
2023-04-16T18:08:03.679Z,7.43
2023-04-16T18:13:07.161Z,7.57
2023-04-16T18:18:11.003Z,8.00
2023-04-16T18:23:15.863Z,7.38
2023-04-16T18:28:19.270Z,7.82
2023-04-16T18:33:48.776Z,8.10
2023-04-16T18:39:00.162Z,7.72
2023-04-16T18:44:04.966Z,7.60
2023-04-16T18:49:08.430Z,8.32
2023-04-16T18:54:13.394Z,8.55
2023-04-16T18:59:16.932Z,8.48
2023-04-16T19:04:20.595Z,9.85
2023-04-16T19:09:26.585Z,9.57
2023-04-16T19:14:29.925Z,9.70
2023-04-16T19:19:33.404Z,9.55
2023-04-16T19:24:38.167Z,8.90
2023-04-16T19:29:43.743Z,8.15
2023-04-16T19:34:47.388Z,9.52
2023-04-16T19:39:52.146Z,10.00
2023-04-16T19:44:55.894Z,10.30
2023-04-16T19:49:59.082Z,9.70
2023-04-16T19:55:03.935Z,8.63
2023-04-16T20:00:11.574Z,10.32
2023-04-16T20:05:15.140Z,9.40
2023-04-16T20:10:19.941Z,9.60
2023-04-16T20:15:23.513Z,10.07
2023-04-16T20:20:27.454Z,9.13
2023-04-16T20:25:32.372Z,9.60
2023-04-16T20:30:39.038Z,8.88
2023-04-16T20:35:43.007Z,8.90
2023-04-16T20:40:47.889Z,10.00
2023-04-16T20:45:51.237Z,8.90
2023-04-16T20:50:59.776Z,9.13
2023-04-16T20:56:04.692Z,8.77
2023-04-16T21:01:07.969Z,9.00
2023-04-16T21:06:14.516Z,9.38
2023-04-16T21:11:19.182Z,9.00
2023-04-16T21:16:22.563Z,8.98
2023-04-16T21:21:27.792Z,8.63
2023-04-16T21:26:33.980Z,9.20
2023-04-16T21:31:37.317Z,9.48
2023-04-16T21:36:40.648Z,9.70
2023-04-16T21:41:45.392Z,9.63
2023-04-16T21:46:48.743Z,8.70
2023-04-16T21:51:59.176Z,10.45
2023-04-16T21:57:03.926Z,10.30
2023-04-16T22:02:10.077Z,10.43
2023-04-16T22:07:13.926Z,10.20
2023-04-16T22:12:18.546Z,9.75
2023-04-16T22:17:21.813Z,13.68
2023-04-16T22:22:25.078Z,16.73
2023-04-16T22:27:29.892Z,15.02
2023-04-16T22:32:33.372Z,22.23
2023-04-16T22:37:37.050Z,29.17
2023-04-16T22:42:41.656Z,15.07
2023-04-16T22:47:44.884Z,13.02
2023-04-16T22:52:48.223Z,13.48
2023-04-16T22:57:52.872Z,14.35
2023-04-16T23:02:56.230Z,16.17
2023-04-16T23:07:59.646Z,15.98
2023-04-16T23:13:04.302Z,16.10
2023-04-16T23:18:07.677Z,16.25
2023-04-16T23:23:10.996Z,15.75
2023-04-16T23:28:15.884Z,15.50
2023-04-16T23:33:19.214Z,16.15
2023-04-16T23:38:22.404Z,15.10
2023-04-16T23:43:26.997Z,14.65
2023-04-16T23:48:30.517Z,13.65
2023-04-16T23:53:33.854Z,15.10
2023-04-16T23:58:38.627Z,13.35
